createdAt,value
2019-06-08T00:01:54.533Z,72.20
2019-06-08T00:04:24.547Z,72.60
2019-06-08T00:06:54.602Z,73.10
2019-06-08T00:09:24.727Z,72.60
2019-06-08T00:11:54.666Z,73.00
2019-06-08T00:14:25.556Z,72.60
2019-06-08T00:16:55.671Z,72.30
2019-06-08T00:19:25.710Z,72.40
2019-06-08T00:21:55.722Z,72.50
2019-06-08T00:24:25.838Z,72.50
2019-06-08T00:26:55.790Z,73.40
2019-06-08T00:29:25.911Z,73.90
2019-06-08T00:31:55.851Z,74.30
2019-06-08T00:34:25.970Z,74.10
2019-06-08T00:36:55.983Z,73.70
2019-06-08T00:39:25.966Z,74.40
2019-06-08T00:41:55.979Z,74.90
2019-06-08T00:44:25.957Z,74.60
2019-06-08T00:46:55.903Z,74.80
2019-06-08T00:49:26.018Z,74.30
2019-06-08T00:51:55.994Z,75.30
2019-06-08T00:54:26.129Z,75.10
2019-06-08T00:56:56.247Z,74.70
2019-06-08T00:59:26.303Z,74.40
2019-06-08T01:01:56.360Z,75.20
2019-06-08T01:04:27.156Z,75.20
2019-06-08T01:06:57.386Z,75.10
2019-06-08T01:09:28.461Z,74.50
2019-06-08T01:11:58.514Z,75.10
2019-06-08T01:14:29.131Z,74.40
2019-06-08T01:16:59.246Z,74.40
2019-06-08T01:19:29.659Z,74.90
2019-06-08T01:21:59.818Z,74.90
2019-06-08T01:24:30.035Z,74.70
2019-06-08T01:27:00.074Z,74.70
2019-06-08T01:29:30.273Z,74.00
2019-06-08T01:32:00.247Z,72.60
2019-06-08T01:34:31.348Z,72.10
2019-06-08T01:37:02.395Z,73.00
2019-06-08T01:39:32.594Z,71.80
2019-06-08T01:42:02.644Z,71.10
2019-06-08T01:44:32.644Z,72.10
2019-06-08T01:47:02.702Z,71.60
2019-06-08T01:49:32.711Z,71.60
2019-06-08T01:52:02.688Z,71.50
2019-06-08T01:54:33.350Z,71.70
2019-06-08T01:57:03.450Z,70.70
2019-06-08T01:59:34.757Z,70.60
2019-06-08T02:02:04.884Z,70.90
2019-06-08T02:04:34.948Z,71.70
2019-06-08T02:07:05.049Z,71.90
2019-06-08T02:09:35.160Z,71.90
2019-06-08T02:12:05.242Z,71.70
2019-06-08T02:14:35.481Z,72.40
2019-06-08T02:17:05.551Z,72.80
2019-06-08T02:19:35.738Z,72.60
2019-06-08T02:22:05.870Z,72.90
2019-06-08T02:24:35.889Z,72.50
2019-06-08T02:27:06.023Z,72.80
2019-06-08T02:29:36.072Z,72.70
2019-06-08T02:32:06.136Z,72.80
2019-06-08T02:34:38.231Z,73.60
2019-06-08T02:37:07.941Z,73.20
2019-06-08T02:39:39.896Z,74.10
2019-06-08T02:42:09.708Z,74.10
2019-06-08T02:44:40.569Z,74.50
2019-06-08T02:47:10.866Z,74.50
2019-06-08T02:49:40.995Z,74.90
2019-06-08T02:52:11.452Z,74.80
2019-06-08T02:54:41.511Z,75.30
2019-06-08T02:57:13.000Z,75.40
2019-06-08T02:59:44.319Z,75.90
2019-06-08T03:02:14.917Z,75.70
2019-06-08T03:04:46.772Z,75.40
2019-06-08T03:07:18.264Z,75.50
2019-06-08T03:09:51.315Z,76.10
2019-06-08T03:12:22.871Z,75.90
2019-06-08T03:14:54.459Z,76.10
2019-06-08T03:17:24.480Z,76.50
2019-06-08T03:19:54.491Z,76.80
2019-06-08T03:22:24.439Z,77.00
2019-06-08T03:24:54.399Z,77.50
2019-06-08T03:27:24.458Z,78.00
2019-06-08T03:29:54.742Z,78.10
2019-06-08T03:32:25.882Z,78.10
2019-06-08T03:34:57.146Z,77.60
2019-06-08T03:37:27.430Z,77.60
2019-06-08T03:39:57.412Z,77.90
2019-06-08T03:42:27.428Z,77.70
2019-06-08T03:44:57.480Z,78.40
2019-06-08T03:47:28.427Z,78.50
2019-06-08T03:49:58.395Z,78.60
2019-06-08T03:52:28.382Z,78.70
2019-06-08T03:54:58.402Z,78.60
2019-06-08T03:57:28.392Z,78.90
2019-06-08T03:59:59.379Z,79.10
2019-06-08T04:02:29.436Z,79.20
2019-06-08T04:04:59.391Z,79.80
2019-06-08T04:07:29.376Z,79.80
2019-06-08T04:09:59.402Z,80.00
2019-06-08T04:12:29.473Z,79.60
2019-06-08T04:14:59.472Z,80.40
2019-06-08T04:17:29.483Z,81.00
2019-06-08T04:20:10.189Z,79.90
2019-06-08T04:22:31.119Z,79.90
2019-06-08T04:25:01.107Z,80.40
2019-06-08T04:27:31.058Z,79.20
2019-06-08T04:30:01.035Z,78.80
2019-06-08T04:32:31.155Z,79.00
2019-06-08T04:35:01.119Z,78.70
2019-06-08T04:37:31.095Z,78.50
2019-06-08T04:40:01.115Z,77.00
2019-06-08T04:42:31.110Z,77.70
2019-06-08T04:45:01.212Z,77.80
2019-06-08T04:47:31.336Z,77.30
2019-06-08T04:50:20.299Z,76.90
2019-06-08T04:52:32.973Z,76.40
2019-06-08T04:55:03.508Z,75.60
2019-06-08T04:57:33.576Z,75.50
2019-06-08T05:00:12.166Z,75.00
2019-06-08T05:02:36.745Z,76.00
2019-06-08T05:05:08.033Z,76.10
2019-06-08T05:07:39.241Z,76.20
2019-06-08T05:10:11.266Z,75.90
2019-06-08T05:12:41.422Z,75.50
2019-06-08T05:15:11.891Z,75.00
2019-06-08T05:17:43.251Z,75.50
2019-06-08T05:20:13.467Z,75.50
2019-06-08T05:22:43.728Z,74.80
2019-06-08T05:25:15.222Z,73.20
2019-06-08T05:27:45.433Z,72.90
2019-06-08T05:30:15.790Z,71.20
2019-06-08T05:32:45.843Z,72.10
2019-06-08T05:35:16.818Z,72.20
2019-06-08T05:37:47.769Z,72.50
2019-06-08T05:40:17.831Z,72.40
2019-06-08T05:42:47.981Z,71.40
2019-06-08T05:45:18.561Z,72.70
2019-06-08T05:47:49.990Z,73.10
2019-06-08T05:50:20.288Z,73.80
2019-06-08T05:52:50.456Z,74.90
2019-06-08T05:55:20.431Z,75.60
2019-06-08T05:57:50.603Z,76.20
2019-06-08T06:00:20.706Z,76.20
2019-06-08T06:02:50.974Z,76.10
2019-06-08T06:05:21.152Z,76.00
2019-06-08T06:07:51.304Z,76.30
2019-06-08T06:10:22.347Z,76.40
2019-06-08T06:12:52.394Z,76.10
2019-06-08T06:15:22.488Z,76.00
2019-06-08T06:17:52.537Z,76.10
2019-06-08T06:20:22.551Z,75.40
2019-06-08T06:22:52.727Z,74.70
2019-06-08T06:25:22.819Z,75.00
2019-06-08T06:27:52.869Z,74.60
2019-06-08T06:30:23.003Z,74.60
2019-06-08T06:32:53.019Z,74.00
2019-06-08T06:35:23.068Z,69.60
2019-06-08T06:37:53.195Z,69.40
2019-06-08T06:40:23.274Z,70.50
2019-06-08T06:42:53.323Z,68.80
2019-06-08T06:45:23.452Z,69.80
2019-06-08T06:47:53.523Z,69.60
2019-06-08T06:50:23.643Z,67.20
2019-06-08T06:52:55.258Z,66.40
2019-06-08T06:55:26.069Z,66.70
2019-06-08T06:57:56.093Z,66.40
2019-06-08T07:00:33.053Z,65.70
2019-06-08T07:03:03.243Z,66.10
2019-06-08T07:05:34.212Z,66.30
2019-06-08T07:08:04.383Z,67.10
2019-06-08T07:10:34.723Z,66.50
2019-06-08T07:13:04.855Z,67.60
2019-06-08T07:15:41.512Z,68.00
2019-06-08T07:18:06.620Z,66.90
2019-06-08T07:20:36.674Z,66.20
2019-06-08T07:23:06.803Z,65.60
2019-06-08T07:25:36.854Z,66.10
2019-06-08T07:28:06.992Z,66.40
2019-06-08T07:30:37.119Z,66.90
2019-06-08T07:33:07.062Z,66.10
2019-06-08T07:35:38.014Z,65.90
2019-06-08T07:38:08.239Z,65.10
2019-06-08T07:40:38.427Z,65.10
2019-06-08T07:43:08.531Z,65.10
2019-06-08T07:45:38.623Z,64.90
2019-06-08T07:48:08.682Z,64.60
2019-06-08T07:50:38.731Z,63.90
2019-06-08T07:53:08.822Z,64.20
2019-06-08T07:55:38.893Z,63.80
2019-06-08T07:58:08.906Z,64.80
2019-06-08T08:00:39.023Z,65.00
2019-06-08T08:03:09.107Z,64.00
2019-06-08T08:05:39.178Z,63.70
2019-06-08T08:08:09.267Z,62.60
2019-06-08T08:10:40.389Z,61.70
2019-06-08T08:13:11.444Z,62.40
2019-06-08T08:15:41.634Z,62.60
2019-06-08T08:18:11.743Z,63.50
2019-06-08T08:20:41.862Z,63.10
2019-06-08T08:23:11.975Z,63.70
2019-06-08T08:25:42.023Z,63.60
2019-06-08T08:28:12.210Z,62.20
2019-06-08T08:30:42.430Z,61.50
2019-06-08T08:33:12.511Z,61.40
2019-06-08T08:35:42.626Z,61.20
2019-06-08T08:38:12.723Z,61.80
2019-06-08T08:40:43.551Z,60.20
2019-06-08T08:43:14.631Z,61.00
2019-06-08T08:45:47.647Z,59.90
2019-06-08T08:48:25.366Z,60.00
2019-06-08T08:50:50.773Z,59.00
2019-06-08T08:53:20.575Z,59.30
2019-06-08T08:55:50.886Z,59.60
2019-06-08T08:58:20.989Z,59.20
2019-06-08T09:00:52.134Z,60.00
2019-06-08T09:03:30.978Z,59.80
2019-06-08T09:05:55.715Z,60.90
2019-06-08T09:08:27.785Z,60.30
2019-06-08T09:11:00.277Z,58.60
2019-06-08T09:13:29.200Z,59.40
2019-06-08T09:16:02.161Z,58.80
2019-06-08T09:18:30.895Z,59.00
2019-06-08T09:21:02.838Z,59.60
2019-06-08T09:23:32.505Z,60.20
2019-06-08T09:26:08.795Z,60.40
2019-06-08T09:28:34.267Z,60.10
2019-06-08T09:31:04.360Z,59.50
2019-06-08T09:33:34.464Z,60.10
2019-06-08T09:36:05.023Z,58.60
2019-06-08T09:38:38.524Z,59.30
2019-06-08T09:41:08.952Z,58.40
2019-06-08T09:43:39.134Z,59.50
2019-06-08T09:46:09.574Z,59.00
2019-06-08T09:48:40.519Z,59.00
2019-06-08T09:51:10.571Z,59.70
2019-06-08T09:53:41.575Z,58.70
2019-06-08T09:56:11.919Z,59.30
2019-06-08T09:58:42.029Z,58.80
2019-06-08T10:01:12.567Z,58.40
2019-06-08T10:03:42.664Z,58.00
2019-06-08T10:06:12.890Z,59.20
2019-06-08T10:08:42.792Z,58.50
2019-06-08T10:11:12.897Z,59.00
2019-06-08T10:13:43.466Z,58.20
2019-06-08T10:16:13.678Z,58.00
2019-06-08T10:18:43.778Z,57.00
2019-06-08T10:21:14.864Z,57.40
2019-06-08T10:23:44.914Z,57.50
2019-06-08T10:26:17.664Z,56.70
2019-06-08T10:28:48.282Z,56.80
2019-06-08T10:31:18.203Z,57.00
2019-06-08T10:33:48.358Z,56.40
2019-06-08T10:36:18.441Z,56.00
2019-06-08T10:38:48.567Z,55.10
2019-06-08T10:41:21.726Z,54.80
2019-06-08T10:43:50.436Z,55.80
2019-06-08T10:46:21.009Z,56.50
2019-06-08T10:48:52.100Z,56.40
2019-06-08T10:51:22.182Z,55.80
2019-06-08T10:53:53.502Z,56.20
2019-06-08T10:56:23.676Z,55.50
2019-06-08T10:58:53.740Z,53.30
2019-06-08T11:01:23.852Z,54.60
2019-06-08T11:03:54.003Z,54.00
2019-06-08T11:06:24.108Z,53.50
2019-06-08T11:08:54.162Z,53.90
2019-06-08T11:11:24.271Z,52.30
2019-06-08T11:13:54.663Z,53.20
2019-06-08T11:16:24.735Z,53.80
2019-06-08T11:18:54.692Z,53.30
2019-06-08T11:21:24.807Z,54.30
2019-06-08T11:24:07.333Z,54.50
2019-06-08T11:26:28.898Z,53.70
2019-06-08T11:28:58.735Z,49.90
2019-06-08T11:31:31.957Z,50.40
2019-06-08T11:34:02.241Z,52.40
2019-06-08T11:36:32.236Z,51.90
2019-06-08T11:39:02.537Z,50.90
2019-06-08T11:41:33.432Z,49.40
2019-06-08T11:44:04.776Z,48.20
2019-06-08T11:46:35.167Z,48.00
2019-06-08T11:49:08.254Z,48.30
2019-06-08T11:51:37.842Z,45.80
2019-06-08T11:54:25.637Z,47.10
2019-06-08T11:56:48.668Z,48.30
2019-06-08T11:59:19.396Z,46.60
2019-06-08T12:01:50.502Z,48.20
2019-06-08T12:04:20.587Z,47.30
2019-06-08T12:06:50.588Z,47.40
2019-06-08T12:09:20.736Z,48.00
2019-06-08T12:11:50.754Z,47.40
2019-06-08T12:14:23.861Z,48.40
2019-06-08T12:16:55.311Z,48.50
2019-06-08T12:19:25.327Z,47.90
2019-06-08T12:21:57.855Z,48.20
2019-06-08T12:24:40.981Z,44.20
2019-06-08T12:27:09.047Z,44.80
2019-06-08T12:29:30.743Z,45.10
2019-06-08T12:32:00.755Z,45.40
2019-06-08T12:34:32.599Z,44.60
2019-06-08T12:37:02.674Z,45.30
2019-06-08T12:39:32.651Z,46.30
2019-06-08T12:42:02.635Z,46.20
2019-06-08T12:44:33.756Z,45.60
2019-06-08T12:47:03.807Z,45.20
2019-06-08T12:49:33.998Z,43.80
2019-06-08T12:52:04.135Z,40.90
2019-06-08T12:54:34.187Z,42.10
2019-06-08T12:57:04.341Z,44.10
2019-06-08T12:59:34.463Z,44.60
2019-06-08T13:02:04.570Z,43.70
2019-06-08T13:04:34.693Z,44.30
2019-06-08T13:07:04.910Z,44.10
2019-06-08T13:09:34.940Z,41.60
2019-06-08T13:12:07.717Z,43.60
2019-06-08T13:14:39.474Z,44.10
2019-06-08T13:17:10.377Z,45.10
2019-06-08T13:19:45.408Z,44.50
2019-06-08T13:22:15.525Z,43.80
2019-06-08T13:24:47.771Z,43.70
2019-06-08T13:27:21.133Z,43.40
2019-06-08T13:29:49.191Z,43.60
2019-06-08T13:32:21.648Z,42.40
2019-06-08T13:34:50.919Z,42.50
2019-06-08T13:37:22.076Z,42.70
2019-06-08T13:39:53.294Z,43.10
2019-06-08T13:42:23.268Z,41.70
2019-06-08T13:44:53.540Z,42.10
2019-06-08T13:47:23.590Z,44.00
2019-06-08T13:49:53.694Z,44.20
2019-06-08T13:52:25.139Z,45.00
2019-06-08T13:54:58.361Z,45.90
2019-06-08T13:57:28.475Z,45.50
2019-06-08T13:59:58.414Z,44.90
2019-06-08T14:02:31.621Z,43.90
2019-06-08T14:05:00.361Z,44.20
2019-06-08T14:07:34.281Z,42.60
2019-06-08T14:10:02.854Z,41.40
2019-06-08T14:12:32.890Z,41.50
2019-06-08T14:15:02.984Z,42.00
2019-06-08T14:17:33.104Z,41.10
2019-06-08T14:20:03.237Z,41.30
2019-06-08T14:22:33.287Z,42.40
2019-06-08T14:25:04.003Z,43.10
2019-06-08T14:27:34.115Z,40.80
2019-06-08T14:30:08.226Z,41.10
2019-06-08T14:32:38.228Z,40.50
2019-06-08T14:35:08.872Z,40.90
2019-06-08T14:37:38.994Z,38.70
2019-06-08T14:40:10.671Z,39.90
2019-06-08T14:42:40.757Z,40.60
2019-06-08T14:45:11.371Z,40.00
2019-06-08T14:47:44.102Z,40.50
2019-06-08T14:50:18.078Z,40.00
2019-06-08T14:52:47.978Z,39.20
2019-06-08T14:55:18.762Z,38.60
2019-06-08T14:57:49.219Z,37.90
2019-06-08T15:00:23.029Z,36.20
2019-06-08T15:02:54.190Z,36.40
2019-06-08T15:05:25.316Z,39.40
2019-06-08T15:08:00.420Z,39.30
2019-06-08T15:10:28.481Z,40.90
2019-06-08T15:12:58.894Z,39.20
2019-06-08T15:15:31.789Z,37.10
2019-06-08T15:18:00.750Z,37.30
2019-06-08T15:20:30.843Z,37.50
2019-06-08T15:23:01.725Z,37.10
2019-06-08T15:25:32.898Z,37.20
2019-06-08T15:28:03.147Z,33.80
2019-06-08T15:30:33.251Z,33.20
2019-06-08T15:33:03.328Z,34.10
2019-06-08T15:35:33.380Z,33.70
2019-06-08T15:38:04.530Z,35.50
2019-06-08T15:40:34.661Z,34.30
2019-06-08T15:43:04.695Z,37.40
2019-06-08T15:45:34.720Z,37.70
2019-06-08T15:48:04.772Z,36.40
2019-06-08T15:50:35.049Z,37.10
2019-06-08T15:53:05.179Z,40.20
2019-06-08T15:55:37.790Z,37.50
2019-06-08T15:58:08.997Z,38.50
2019-06-08T16:00:38.764Z,38.90
2019-06-08T16:03:08.808Z,36.70
2019-06-08T16:05:38.925Z,39.70
2019-06-08T16:08:09.127Z,38.40
2019-06-08T16:10:39.123Z,37.90
2019-06-08T16:13:09.162Z,36.80
2019-06-08T16:15:45.039Z,39.60
2019-06-08T16:18:15.110Z,37.10
2019-06-08T16:20:45.191Z,37.90
2019-06-08T16:23:15.255Z,38.50
2019-06-08T16:25:45.504Z,38.50
2019-06-08T16:28:17.157Z,39.10
2019-06-08T16:30:47.287Z,38.40
2019-06-08T16:33:17.366Z,39.70
2019-06-08T16:35:47.499Z,39.30
2019-06-08T16:38:17.499Z,39.20
2019-06-08T16:40:47.708Z,39.60
2019-06-08T16:43:17.655Z,38.90
2019-06-08T16:45:48.850Z,38.90
2019-06-08T16:48:18.928Z,38.80
2019-06-08T16:50:49.047Z,40.50
2019-06-08T16:53:19.206Z,42.10
2019-06-08T16:55:49.219Z,40.30
2019-06-08T16:58:19.234Z,40.30
2019-06-08T17:00:49.310Z,39.00
2019-06-08T17:03:19.398Z,39.70
2019-06-08T17:05:49.504Z,39.40
2019-06-08T17:08:19.519Z,39.70
2019-06-08T17:10:49.635Z,39.80
2019-06-08T17:13:19.647Z,40.00
2019-06-08T17:15:49.709Z,40.30
2019-06-08T17:18:19.800Z,39.60
2019-06-08T17:20:49.907Z,40.60
2019-06-08T17:23:19.916Z,40.40
2019-06-08T17:25:49.963Z,40.10
2019-06-08T17:28:19.951Z,40.50
2019-06-08T17:30:50.001Z,40.40
2019-06-08T17:33:20.050Z,41.40
2019-06-08T17:35:50.120Z,41.20
2019-06-08T17:38:20.062Z,42.10
2019-06-08T17:40:50.274Z,41.80
2019-06-08T17:43:20.423Z,41.90
2019-06-08T17:45:50.545Z,41.60
2019-06-08T17:48:20.627Z,41.70
2019-06-08T17:50:50.694Z,41.20
2019-06-08T17:53:20.678Z,41.80
2019-06-08T17:55:50.854Z,42.10
2019-06-08T17:58:26.227Z,42.50
2019-06-08T18:00:58.427Z,41.90
2019-06-08T18:03:28.543Z,44.10
2019-06-08T18:05:58.650Z,43.30
2019-06-08T18:08:28.975Z,42.90
2019-06-08T18:10:59.039Z,42.60
2019-06-08T18:13:29.055Z,43.00
2019-06-08T18:16:01.195Z,43.10
2019-06-08T18:18:31.148Z,42.60
2019-06-08T18:21:02.163Z,42.20
2019-06-08T18:23:32.213Z,42.70
2019-06-08T18:26:02.332Z,43.70
2019-06-08T18:28:32.462Z,42.90
2019-06-08T18:31:02.470Z,43.50
2019-06-08T18:33:32.603Z,43.80
2019-06-08T18:36:02.803Z,44.20
2019-06-08T18:38:32.848Z,43.80
2019-06-08T18:41:02.886Z,43.90
2019-06-08T18:43:32.930Z,44.90
2019-06-08T18:46:04.346Z,44.80
2019-06-08T18:48:35.923Z,44.90
2019-06-08T18:51:08.320Z,44.50
2019-06-08T18:53:54.386Z,44.70
2019-06-08T18:56:10.191Z,45.00
2019-06-08T18:58:40.274Z,44.80
2019-06-08T19:01:10.511Z,44.90
2019-06-08T19:03:44.543Z,45.20
2019-06-08T19:06:12.623Z,45.60
2019-06-08T19:08:44.886Z,45.30
2019-06-08T19:11:14.483Z,46.00
2019-06-08T19:13:47.028Z,46.00
2019-06-08T19:16:18.161Z,46.50
2019-06-08T19:18:52.501Z,48.60
2019-06-08T19:21:20.103Z,48.10
2019-06-08T19:23:50.474Z,48.70
2019-06-08T19:26:20.723Z,48.70
2019-06-08T19:28:53.954Z,50.40
2019-06-08T19:31:22.608Z,50.00
2019-06-08T19:33:53.266Z,52.60
2019-06-08T19:36:23.701Z,51.00
2019-06-08T19:38:54.836Z,50.30
2019-06-08T19:41:25.019Z,50.20
2019-06-08T19:43:55.075Z,51.10
2019-06-08T19:46:27.131Z,51.10
2019-06-08T19:48:58.947Z,52.00
2019-06-08T19:51:28.775Z,52.30
2019-06-08T19:54:00.416Z,51.90
2019-06-08T19:56:30.523Z,52.30
2019-06-08T19:59:04.731Z,52.30
2019-06-08T20:01:32.254Z,52.00
2019-06-08T20:04:02.320Z,52.00
2019-06-08T20:06:32.366Z,52.70
2019-06-08T20:09:02.364Z,52.60
2019-06-08T20:11:33.522Z,53.20
2019-06-08T20:14:03.736Z,53.60
2019-06-08T20:16:33.787Z,53.30
2019-06-08T20:19:03.871Z,53.80
2019-06-08T20:21:34.162Z,53.70
2019-06-08T20:24:04.251Z,54.10
2019-06-08T20:26:34.233Z,53.90
2019-06-08T20:29:15.518Z,54.00
2019-06-08T20:31:38.495Z,53.70
2019-06-08T20:34:07.696Z,54.00
2019-06-08T20:36:37.696Z,53.90
2019-06-08T20:39:08.466Z,53.20
2019-06-08T20:41:38.781Z,53.60
2019-06-08T20:44:08.870Z,54.50
2019-06-08T20:46:40.076Z,55.20
2019-06-08T20:49:10.989Z,55.00
2019-06-08T20:51:42.402Z,55.20
2019-06-08T20:54:12.467Z,55.30
2019-06-08T20:56:42.991Z,56.10
2019-06-08T20:59:28.773Z,56.40
2019-06-08T21:01:46.253Z,56.40
2019-06-08T21:04:18.211Z,56.00
2019-06-08T21:06:51.576Z,56.00
2019-06-08T21:09:22.269Z,56.70
2019-06-08T21:11:54.134Z,56.50
2019-06-08T21:14:23.952Z,57.00
2019-06-08T21:16:54.975Z,57.20
2019-06-08T21:19:25.011Z,56.70
2019-06-08T21:21:56.031Z,57.00
2019-06-08T21:24:28.148Z,57.60
2019-06-08T21:27:00.611Z,56.80
2019-06-08T21:29:47.141Z,56.90
2019-06-08T21:32:03.036Z,56.90
2019-06-08T21:34:33.310Z,56.80
2019-06-08T21:37:03.287Z,57.30
2019-06-08T21:39:36.090Z,57.10
2019-06-08T21:42:07.729Z,57.70
2019-06-08T21:44:37.207Z,57.60
2019-06-08T21:47:08.465Z,57.70
2019-06-08T21:49:38.607Z,57.60
2019-06-08T21:52:08.687Z,58.00
2019-06-08T21:54:38.849Z,58.00
2019-06-08T21:57:09.620Z,57.80
2019-06-08T21:59:39.814Z,57.30
2019-06-08T22:02:10.094Z,57.20
2019-06-08T22:04:40.179Z,57.50
2019-06-08T22:07:10.230Z,57.90
2019-06-08T22:09:40.215Z,58.90
2019-06-08T22:12:10.233Z,57.80
2019-06-08T22:14:40.297Z,57.60
2019-06-08T22:17:10.414Z,57.40
2019-06-08T22:19:40.399Z,57.40
2019-06-08T22:22:10.511Z,57.40
2019-06-08T22:24:40.567Z,57.60
2019-06-08T22:27:10.547Z,57.60
2019-06-08T22:29:40.491Z,58.20
2019-06-08T22:32:10.605Z,58.40
2019-06-08T22:34:40.623Z,58.60
2019-06-08T22:37:10.670Z,59.30
2019-06-08T22:39:40.687Z,59.80
2019-06-08T22:42:10.747Z,59.40
2019-06-08T22:44:40.835Z,60.20
2019-06-08T22:47:10.897Z,60.30
2019-06-08T22:49:40.838Z,59.90
2019-06-08T22:52:10.889Z,60.00
2019-06-08T22:54:40.867Z,60.30
2019-06-08T22:57:11.020Z,61.00
2019-06-08T22:59:40.995Z,61.00
2019-06-08T23:02:11.007Z,61.60
2019-06-08T23:04:41.134Z,61.50
2019-06-08T23:07:25.743Z,61.40
2019-06-08T23:09:42.836Z,61.40
2019-06-08T23:12:12.916Z,61.80
2019-06-08T23:14:42.932Z,61.70
2019-06-08T23:17:12.979Z,61.90
2019-06-08T23:19:43.034Z,62.10
2019-06-08T23:22:13.156Z,61.80
2019-06-08T23:24:43.175Z,61.80
2019-06-08T23:27:13.242Z,61.50
2019-06-08T23:29:43.254Z,62.20
2019-06-08T23:32:13.315Z,61.80
2019-06-08T23:34:43.363Z,61.80
2019-06-08T23:37:13.368Z,61.80
2019-06-08T23:39:43.418Z,62.40
2019-06-08T23:42:13.503Z,62.30
2019-06-08T23:44:43.567Z,63.00
2019-06-08T23:47:13.591Z,63.20
2019-06-08T23:49:43.579Z,63.40
2019-06-08T23:52:13.624Z,63.60
2019-06-08T23:54:43.647Z,63.80
2019-06-08T23:57:13.618Z,63.50
2019-06-08T23:59:43.702Z,63.10
